NSZ2975 LCLK-EFHK
Flight info
| Callsign | NSZ2975 |
|---|---|
| Flight time | N/A |
| Altitude | 36000 |
| Route | RUDER1D RUDER M13 BAPAX L620 VESAR UL620 MUT UB545 OSVEL UL619 MAKOL DCT SITNO DCT WRN DCT BALIK DCT ARGES DCT ASNEL DCT PEXAL DCT TGM DCT JIBOU DCT KENIN DCT ROBTU DCT PODAN M857 OBOSO DCT EGLON M857 NORNO DCT BOKSU DCT PELUT DCT ROLAV DCT DOLAT DCT ARSAM DCT INTOR |
| Aircraft | B38M/M-SDE1FGHILORVWXY/HB1 |
Departure
| Time | 2026-05-07 14:04 |
|---|---|
| Airport | Larnaca International Airport (LCLK) |
Arrival
| Time | N/A |
|---|---|
| Airport | Helsinki Vantaa Airport (EFHK) |
| Time | Latitude | Longitude | Altitude | Speed | Heading |
|---|---|---|---|---|---|
| 2026-05-07 13:36 | 34.86878 | 33.60956 | 21 ft | 0 kts | 45° |
| 2026-05-07 13:50 | 34.86872 | 33.60948 | 22 ft | 2 kts | 46° |
| 2026-05-07 13:50 | 34.86860 | 33.60934 | 23 ft | 2 kts | 45° |
| 2026-05-07 13:51 | 34.86848 | 33.60920 | 22 ft | 2 kts | 46° |
| 2026-05-07 13:51 | 34.86837 | 33.60905 | 24 ft | 2 kts | 46° |
| 2026-05-07 13:51 | 34.86825 | 33.60891 | 24 ft | 2 kts | 53° |
| 2026-05-07 13:51 | 34.86819 | 33.60873 | 21 ft | 2 kts | 83° |
| 2026-05-07 13:52 | 34.86824 | 33.60855 | 22 ft | 2 kts | 135° |
| 2026-05-07 13:52 | 34.86830 | 33.60847 | 21 ft | 0 kts | 135° |
| 2026-05-07 13:55 | 34.86810 | 33.60872 | 23 ft | 9 kts | 135° |
| 2026-05-07 13:55 | 34.86741 | 33.60955 | 21 ft | 18 kts | 135° |
| 2026-05-07 13:55 | 34.86695 | 33.61041 | 21 ft | 11 kts | 89° |
| 2026-05-07 13:55 | 34.86724 | 33.61096 | 21 ft | 8 kts | 45° |
| 2026-05-07 13:56 | 34.86766 | 33.61147 | 21 ft | 10 kts | 44° |
| 2026-05-07 13:56 | 34.86826 | 33.61219 | 22 ft | 15 kts | 45° |
| 2026-05-07 13:56 | 34.86914 | 33.61327 | 22 ft | 21 kts | 45° |
| 2026-05-07 13:56 | 34.87026 | 33.61464 | 21 ft | 13 kts | 45° |
| 2026-05-07 13:57 | 34.87087 | 33.61556 | 21 ft | 13 kts | 75° |
| 2026-05-07 13:57 | 34.87078 | 33.61657 | 21 ft | 11 kts | 67° |
| 2026-05-07 13:57 | 34.87141 | 33.61745 | 21 ft | 17 kts | 45° |
| 2026-05-07 13:57 | 34.87238 | 33.61865 | 20 ft | 23 kts | 45° |
| 2026-05-07 13:58 | 34.87366 | 33.62022 | 20 ft | 29 kts | 45° |
| 2026-05-07 13:58 | 34.87517 | 33.62208 | 20 ft | 32 kts | 45° |
| 2026-05-07 13:58 | 34.87668 | 33.62390 | 19 ft | 24 kts | 45° |
| 2026-05-07 13:58 | 34.87790 | 33.62540 | 19 ft | 26 kts | 45° |
| 2026-05-07 13:59 | 34.87918 | 33.62696 | 19 ft | 27 kts | 45° |
| 2026-05-07 13:59 | 34.88052 | 33.62858 | 19 ft | 28 kts | 45° |
| 2026-05-07 13:59 | 34.88190 | 33.63027 | 18 ft | 29 kts | 45° |
| 2026-05-07 13:59 | 34.88329 | 33.63195 | 18 ft | 27 kts | 45° |
| 2026-05-07 14:00 | 34.88421 | 33.63308 | 19 ft | 16 kts | 45° |
| 2026-05-07 14:00 | 34.88439 | 33.63392 | 20 ft | 6 kts | 130° |
| 2026-05-07 14:00 | 34.88408 | 33.63428 | 18 ft | 4 kts | 135° |
| 2026-05-07 14:00 | 34.88408 | 33.63429 | 18 ft | 0 kts | 135° |
| 2026-05-07 14:02 | 34.88399 | 33.63440 | 20 ft | 4 kts | 135° |
| 2026-05-07 14:02 | 34.88376 | 33.63467 | 18 ft | 5 kts | 135° |
| 2026-05-07 14:02 | 34.88346 | 33.63503 | 18 ft | 7 kts | 135° |
| 2026-05-07 14:02 | 34.88314 | 33.63518 | 18 ft | 3 kts | 188° |
| 2026-05-07 14:03 | 34.88294 | 33.63505 | 18 ft | 4 kts | 213° |
| 2026-05-07 14:03 | 34.88269 | 33.63479 | 17 ft | 6 kts | 225° |
| 2026-05-07 14:03 | 34.88222 | 33.63421 | 17 ft | 25 kts | 224° |
| 2026-05-07 14:03 | 34.87905 | 33.63037 | 21 ft | 102 kts | 225° |
| 2026-05-07 14:04 | 34.87239 | 33.62237 | 26 ft | 164 kts | 220° |
| 2026-05-07 14:04 | 34.86384 | 33.61183 | 526 ft | 184 kts | 225° |
| 2026-05-07 14:04 | 34.85491 | 33.60084 | 1549 ft | 176 kts | 225° |
| 2026-05-07 14:04 | 34.84597 | 33.58990 | 2224 ft | 193 kts | 226° |
| 2026-05-07 14:05 | 34.83594 | 33.57763 | 2707 ft | 215 kts | 226° |
| 2026-05-07 14:05 | 34.82460 | 33.56422 | 3122 ft | 242 kts | 220° |
| 2026-05-07 14:05 | 34.80901 | 33.55459 | 3749 ft | 257 kts | 190° |
| 2026-05-07 14:05 | 34.79100 | 33.55648 | 4511 ft | 270 kts | 156° |
| 2026-05-07 14:06 | 34.77566 | 33.56968 | 5180 ft | 279 kts | 132° |
| 2026-05-07 14:06 | 34.76152 | 33.58641 | 6171 ft | 282 kts | 135° |
| 2026-05-07 14:06 | 34.74716 | 33.60255 | 7038 ft | 287 kts | 135° |
| 2026-05-07 14:06 | 34.73238 | 33.61904 | 7951 ft | 289 kts | 136° |
| 2026-05-07 14:07 | 34.71749 | 33.63560 | 8860 ft | 292 kts | 136° |
| 2026-05-07 14:07 | 34.70244 | 33.65231 | 9774 ft | 294 kts | 136° |
| 2026-05-07 14:07 | 34.68718 | 33.66925 | 10512 ft | 302 kts | 136° |
| 2026-05-07 14:07 | 34.67117 | 33.68695 | 10883 ft | 321 kts | 136° |
| 2026-05-07 14:08 | 34.65422 | 33.70591 | 11190 ft | 341 kts | 133° |
| 2026-05-07 14:08 | 34.64069 | 33.73011 | 11525 ft | 355 kts | 111° |
| 2026-05-07 14:08 | 34.63560 | 33.75951 | 11979 ft | 363 kts | 89° |
| 2026-05-07 14:08 | 34.63990 | 33.78967 | 12610 ft | 363 kts | 68° |
| 2026-05-07 14:09 | 34.64935 | 33.81833 | 13249 ft | 369 kts | 67° |
| 2026-05-07 14:09 | 34.65885 | 33.84758 | 13900 ft | 373 kts | 67° |
| 2026-05-07 14:09 | 34.66835 | 33.87662 | 14461 ft | 377 kts | 66° |
| 2026-05-07 14:09 | 34.67809 | 33.90633 | 15020 ft | 381 kts | 66° |
| 2026-05-07 14:10 | 34.68796 | 33.93642 | 15566 ft | 385 kts | 66° |
| 2026-05-07 14:10 | 34.69792 | 33.96683 | 16101 ft | 389 kts | 66° |
| 2026-05-07 14:10 | 34.70799 | 33.99758 | 16636 ft | 393 kts | 66° |
| 2026-05-07 14:10 | 34.71814 | 34.02864 | 17148 ft | 398 kts | 66° |
| 2026-05-07 14:11 | 34.73024 | 34.05892 | 17628 ft | 398 kts | 53° |
| 2026-05-07 14:11 | 34.74880 | 34.08356 | 18127 ft | 395 kts | 35° |
| 2026-05-07 14:11 | 34.77242 | 34.10030 | 18540 ft | 394 kts | 18° |
| 2026-05-07 14:11 | 34.79894 | 34.10827 | 18990 ft | 392 kts | 5° |
| 2026-05-07 14:12 | 34.82607 | 34.11221 | 19429 ft | 395 kts | 3° |
| 2026-05-07 14:12 | 34.85349 | 34.11544 | 19905 ft | 396 kts | 2° |
| 2026-05-07 14:12 | 34.88104 | 34.11827 | 20366 ft | 398 kts | 1° |
| 2026-05-07 14:12 | 34.90878 | 34.12089 | 20833 ft | 400 kts | 1° |
| 2026-05-07 14:13 | 34.93630 | 34.12339 | 21286 ft | 402 kts | 1° |
| 2026-05-07 14:13 | 34.96465 | 34.12549 | 21748 ft | 404 kts | 359° |
| 2026-05-07 14:13 | 34.99244 | 34.12729 | 22208 ft | 406 kts | 359° |
| 2026-05-07 14:13 | 35.02079 | 34.12914 | 22669 ft | 408 kts | 359° |
| 2026-05-07 14:14 | 35.04926 | 34.13100 | 23134 ft | 410 kts | 359° |
| 2026-05-07 14:14 | 35.07784 | 34.13288 | 23603 ft | 413 kts | 359° |
| 2026-05-07 14:14 | 35.10662 | 34.13477 | 24001 ft | 415 kts | 359° |
| 2026-05-07 14:14 | 35.13548 | 34.13667 | 24401 ft | 416 kts | 359° |
| 2026-05-07 14:15 | 35.16448 | 34.13858 | 24801 ft | 418 kts | 359° |
| 2026-05-07 14:15 | 35.19364 | 34.14050 | 25194 ft | 420 kts | 359° |
| 2026-05-07 14:15 | 35.22286 | 34.14243 | 25593 ft | 422 kts | 359° |
| 2026-05-07 14:15 | 35.25222 | 34.14437 | 25975 ft | 423 kts | 359° |
| 2026-05-07 14:16 | 35.28173 | 34.14631 | 26359 ft | 425 kts | 359° |
| 2026-05-07 14:16 | 35.30971 | 34.14816 | 26712 ft | 427 kts | 359° |
| 2026-05-07 14:16 | 35.33943 | 34.15012 | 27072 ft | 429 kts | 359° |
| 2026-05-07 14:16 | 35.36927 | 34.15210 | 27438 ft | 430 kts | 359° |
| 2026-05-07 14:17 | 35.39929 | 34.15409 | 27799 ft | 432 kts | 359° |
| 2026-05-07 14:17 | 35.42902 | 34.15605 | 28157 ft | 434 kts | 359° |
| 2026-05-07 14:17 | 35.45920 | 34.15805 | 28510 ft | 435 kts | 359° |
| 2026-05-07 14:17 | 35.48948 | 34.16006 | 28863 ft | 437 kts | 359° |
| 2026-05-07 14:18 | 35.51993 | 34.16209 | 29222 ft | 438 kts | 359° |
| 2026-05-07 14:18 | 35.55029 | 34.16410 | 29715 ft | 436 kts | 359° |
| 2026-05-07 14:18 | 35.58060 | 34.16612 | 30222 ft | 434 kts | 359° |
| 2026-05-07 14:18 | 35.61069 | 34.16812 | 30620 ft | 432 kts | 359° |
| 2026-05-07 14:19 | 35.64070 | 34.17011 | 30977 ft | 432 kts | 359° |
| 2026-05-07 14:19 | 35.67074 | 34.17192 | 31321 ft | 430 kts | 356° |
| 2026-05-07 14:19 | 35.69971 | 34.16720 | 31649 ft | 422 kts | 340° |
| 2026-05-07 14:19 | 35.72670 | 34.15267 | 32017 ft | 417 kts | 329° |
| 2026-05-07 14:20 | 35.75180 | 34.13563 | 32301 ft | 418 kts | 329° |
| 2026-05-07 14:20 | 35.77701 | 34.11785 | 32635 ft | 417 kts | 328° |
| 2026-05-07 14:20 | 35.80205 | 34.09980 | 32976 ft | 417 kts | 328° |
| 2026-05-07 14:20 | 35.82698 | 34.08158 | 33313 ft | 416 kts | 327° |
| 2026-05-07 14:21 | 35.85180 | 34.06329 | 33646 ft | 415 kts | 327° |
| 2026-05-07 14:21 | 35.87661 | 34.04495 | 33980 ft | 415 kts | 327° |
| 2026-05-07 14:21 | 35.90132 | 34.02666 | 34276 ft | 414 kts | 327° |
| 2026-05-07 14:21 | 35.92595 | 34.00817 | 34520 ft | 414 kts | 327° |
| 2026-05-07 14:22 | 35.95054 | 33.98963 | 34763 ft | 414 kts | 327° |
| 2026-05-07 14:22 | 35.96686 | 33.97732 | 34919 ft | 415 kts | 327° |
| 2026-05-07 14:22 | 35.99145 | 33.95877 | 35152 ft | 415 kts | 327° |
| 2026-05-07 14:22 | 36.01615 | 33.94012 | 35380 ft | 415 kts | 327° |
| 2026-05-07 14:23 | 36.04081 | 33.92149 | 35599 ft | 415 kts | 327° |
| 2026-05-07 14:23 | 36.06549 | 33.90283 | 35817 ft | 416 kts | 327° |
| 2026-05-07 14:23 | 36.09018 | 33.88415 | 36018 ft | 416 kts | 327° |
| 2026-05-07 14:24 | 36.13962 | 33.84670 | 36102 ft | 416 kts | 327° |
| 2026-05-07 14:24 | 36.18850 | 33.80963 | 36108 ft | 414 kts | 327° |
| 2026-05-07 14:25 | 36.23760 | 33.77233 | 36106 ft | 413 kts | 327° |
| 2026-05-07 14:25 | 36.28660 | 33.73503 | 36108 ft | 413 kts | 327° |
| 2026-05-07 14:26 | 36.33547 | 33.69776 | 36108 ft | 412 kts | 327° |
| 2026-05-07 14:26 | 36.38429 | 33.66046 | 36107 ft | 412 kts | 327° |
| 2026-05-07 14:27 | 36.43307 | 33.62315 | 36107 ft | 411 kts | 327° |
| 2026-05-07 14:27 | 36.48185 | 33.58578 | 36106 ft | 412 kts | 327° |
| 2026-05-07 14:28 | 36.53059 | 33.54839 | 36106 ft | 412 kts | 327° |
| 2026-05-07 14:28 | 36.57938 | 33.51090 | 36110 ft | 413 kts | 327° |
| 2026-05-07 14:29 | 36.62829 | 33.47326 | 36113 ft | 413 kts | 327° |
| 2026-05-07 14:29 | 36.67691 | 33.43580 | 36109 ft | 414 kts | 327° |
| 2026-05-07 14:30 | 36.72595 | 33.39795 | 36110 ft | 414 kts | 327° |
| 2026-05-07 14:30 | 36.77504 | 33.35999 | 36117 ft | 415 kts | 327° |
| 2026-05-07 14:31 | 36.82409 | 33.32203 | 36128 ft | 415 kts | 327° |
| 2026-05-07 14:31 | 36.87063 | 33.28023 | 36107 ft | 410 kts | 311° |
| 2026-05-07 14:32 | 36.90973 | 33.22784 | 36135 ft | 412 kts | 313° |
| 2026-05-07 14:32 | 36.94874 | 33.17525 | 36135 ft | 412 kts | 312° |
| 2026-05-07 14:33 | 36.98756 | 33.12239 | 36134 ft | 412 kts | 312° |
| 2026-05-07 14:33 | 37.02605 | 33.06986 | 36138 ft | 412 kts | 312° |
| 2026-05-07 14:34 | 37.06472 | 33.01698 | 36141 ft | 412 kts | 312° |
| 2026-05-07 14:34 | 37.10343 | 32.96396 | 36145 ft | 412 kts | 312° |
| 2026-05-07 14:35 | 37.14205 | 32.91098 | 36146 ft | 411 kts | 312° |
| 2026-05-07 14:35 | 37.18058 | 32.85803 | 36146 ft | 411 kts | 312° |
| 2026-05-07 14:36 | 37.21912 | 32.80498 | 36145 ft | 411 kts | 313° |
| 2026-05-07 14:36 | 37.25759 | 32.75196 | 36143 ft | 411 kts | 312° |
| 2026-05-07 14:37 | 37.29599 | 32.69893 | 36143 ft | 410 kts | 313° |
| 2026-05-07 14:37 | 37.35352 | 32.61932 | 36150 ft | 410 kts | 312° |
| 2026-05-07 14:38 | 37.39178 | 32.56628 | 36151 ft | 409 kts | 312° |
| 2026-05-07 14:38 | 37.42975 | 32.51354 | 36151 ft | 409 kts | 312° |
| 2026-05-07 14:39 | 37.46796 | 32.46039 | 36155 ft | 409 kts | 312° |
| 2026-05-07 14:39 | 37.50604 | 32.40733 | 36159 ft | 408 kts | 312° |
| 2026-05-07 14:40 | 37.54412 | 32.35419 | 36153 ft | 408 kts | 312° |